createdAt,value
2023-04-22T00:07:43.521Z,77.12
2023-04-22T00:17:51.272Z,76.76
2023-04-22T00:27:54.415Z,80.66
2023-04-22T00:37:56.762Z,84.70
2023-04-22T00:47:58.766Z,83.81
2023-04-22T00:58:03.010Z,85.80
2023-04-22T01:08:04.960Z,86.69
2023-04-22T01:18:07.432Z,92.21
2023-04-22T01:28:17.596Z,86.67
2023-04-22T01:38:19.485Z,93.17
2023-04-22T01:48:21.498Z,89.80
2023-04-22T01:58:24.393Z,91.60
2023-04-22T02:08:26.409Z,93.84
2023-04-22T02:18:34.595Z,94.08
2023-04-22T02:28:36.575Z,95.82
2023-04-22T02:38:39.019Z,94.67
2023-04-22T02:48:42.877Z,94.49
2023-04-22T02:59:04.308Z,94.84
2023-04-22T03:09:06.397Z,95.55
2023-04-22T03:19:08.277Z,96.44
2023-04-22T03:29:14.241Z,97.74
2023-04-22T03:39:16.182Z,100.00
2023-04-22T03:49:18.043Z,100.00
2023-04-22T03:59:31.937Z,99.77
2023-04-22T04:09:33.940Z,98.93
2023-04-22T04:19:37.305Z,92.51
2023-04-22T04:29:40.003Z,82.22
2023-04-22T04:39:42.659Z,78.95
2023-04-22T04:49:46.063Z,75.79
2023-04-22T04:59:47.937Z,68.22
2023-04-22T05:09:49.958Z,64.74
2023-04-22T05:19:51.898Z,61.30
2023-04-22T05:29:53.947Z,57.75
2023-04-22T05:39:56.167Z,54.88
2023-04-22T05:49:58.213Z,53.95
2023-04-22T06:00:05.577Z,51.75
2023-04-22T06:10:09.667Z,49.75
2023-04-22T06:20:12.501Z,47.26
2023-04-22T06:30:14.686Z,46.91
2023-04-22T06:40:16.683Z,47.69
2023-04-22T06:50:20.247Z,44.64
2023-04-22T07:00:22.299Z,43.01
2023-04-22T07:10:24.800Z,40.36
2023-04-22T07:20:26.714Z,40.30
2023-04-22T07:30:28.678Z,38.28
2023-04-22T07:40:30.654Z,38.38
2023-04-22T07:50:53.979Z,36.94
2023-04-22T08:01:12.508Z,34.81
2023-04-22T08:11:33.685Z,33.08
2023-04-22T08:21:37.471Z,33.51
2023-04-22T08:31:45.457Z,30.77
2023-04-22T08:42:05.908Z,32.21
2023-04-22T08:52:09.676Z,26.74
2023-04-22T09:02:24.496Z,33.45
2023-04-22T09:12:33.424Z,33.84
2023-04-22T09:22:45.363Z,34.18
2023-04-22T09:32:59.368Z,29.73
2023-04-22T09:43:07.843Z,29.28
2023-04-22T09:53:12.072Z,30.64
2023-04-22T10:03:23.172Z,26.93
2023-04-22T10:13:25.286Z,31.12
2023-04-22T10:23:33.676Z,27.99
2023-04-22T10:33:43.817Z,30.66
2023-04-22T10:43:58.740Z,33.07
2023-04-22T10:54:03.002Z,32.15
2023-04-22T11:04:37.531Z,31.58
2023-04-22T11:14:41.083Z,33.59
2023-04-22T11:24:57.095Z,31.52
2023-04-22T11:34:59.153Z,34.15
2023-04-22T11:45:01.125Z,34.95
2023-04-22T11:55:03.144Z,31.35
2023-04-22T12:05:10.653Z,32.15
2023-04-22T12:15:16.179Z,30.03
2023-04-22T12:25:20.945Z,30.58
2023-04-22T12:35:24.015Z,30.43
2023-04-22T12:45:31.945Z,30.86
2023-04-22T12:55:35.971Z,31.27
2023-04-22T13:05:46.881Z,34.39
2023-04-22T13:15:54.156Z,31.94
2023-04-22T13:26:02.600Z,30.88
2023-04-22T13:36:20.796Z,29.65
2023-04-22T13:46:25.096Z,31.49
2023-04-22T13:56:28.411Z,28.44
2023-04-22T14:06:30.636Z,26.62
2023-04-22T14:16:32.690Z,30.22
2023-04-22T14:26:34.685Z,27.79
2023-04-22T14:36:36.874Z,27.46
2023-04-22T14:46:38.810Z,27.01
2023-04-22T14:56:40.871Z,27.67
2023-04-22T15:06:43.090Z,28.38
2023-04-22T15:16:45.159Z,29.30
2023-04-22T15:26:48.197Z,29.70
2023-04-22T15:36:50.272Z,29.23
2023-04-22T15:46:53.306Z,29.65
2023-04-22T15:56:55.319Z,30.05
2023-04-22T16:06:59.533Z,30.05
2023-04-22T16:17:02.947Z,31.13
2023-04-22T16:27:04.999Z,31.14
2023-04-22T16:37:07.106Z,28.37
2023-04-22T16:47:09.109Z,28.95
2023-04-22T16:57:11.891Z,29.02
2023-04-22T17:07:14.884Z,30.94
2023-04-22T17:17:16.845Z,32.29
2023-04-22T17:27:18.844Z,35.34
2023-04-22T17:37:20.913Z,36.30
2023-04-22T17:47:22.976Z,46.34
2023-04-22T17:57:26.155Z,46.24
2023-04-22T18:07:28.260Z,48.71
2023-04-22T18:17:30.370Z,50.19
2023-04-22T18:27:32.335Z,61.17
2023-04-22T18:37:35.675Z,58.67
2023-04-22T18:47:37.819Z,62.78
2023-04-22T18:57:43.714Z,65.24
2023-04-22T19:07:46.211Z,60.34
2023-04-22T19:17:49.595Z,62.27
2023-04-22T19:27:51.910Z,70.28
2023-04-22T19:37:55.406Z,67.24
2023-04-22T19:47:59.343Z,72.82
2023-04-22T19:58:01.964Z,76.56
2023-04-22T20:08:04.120Z,71.78
2023-04-22T20:18:09.579Z,73.03
2023-04-22T20:28:12.266Z,77.09
2023-04-22T20:38:16.483Z,68.50
2023-04-22T20:48:18.533Z,74.77
2023-04-22T20:58:20.548Z,71.95
2023-04-22T21:08:24.930Z,75.55
2023-04-22T21:18:29.331Z,78.88
2023-04-22T21:28:31.665Z,76.72
2023-04-22T21:38:34.634Z,70.79
2023-04-22T21:48:36.431Z,78.30
2023-04-22T21:58:38.497Z,85.99
2023-04-22T22:08:42.725Z,79.83
2023-04-22T22:18:48.879Z,80.52
2023-04-22T22:28:53.233Z,84.99
2023-04-22T22:38:59.268Z,82.79
2023-04-22T22:49:06.590Z,84.71
2023-04-22T22:59:15.449Z,79.67
2023-04-22T23:09:19.324Z,84.84
2023-04-22T23:19:21.386Z,74.78
2023-04-22T23:29:29.648Z,70.96
2023-04-22T23:39:31.695Z,72.99
2023-04-22T23:49:33.675Z,70.21
2023-04-22T23:59:35.964Z,69.86
